createdAt,value
2018-04-30T00:01:42.311Z,2.63
2018-04-30T00:04:09.853Z,3.03
2018-04-30T00:06:37.427Z,2.60
2018-04-30T00:09:04.951Z,2.57
2018-04-30T00:11:32.449Z,2.53
2018-04-30T00:13:59.935Z,2.73
2018-04-30T00:16:27.499Z,2.77
2018-04-30T00:18:55.005Z,2.50
2018-04-30T00:21:22.507Z,2.63
2018-04-30T00:23:50.087Z,2.23
2018-04-30T00:26:17.591Z,2.50
2018-04-30T00:28:45.105Z,2.57
2018-04-30T00:31:12.679Z,2.77
2018-04-30T00:33:40.310Z,2.43
2018-04-30T00:36:07.759Z,3.23
2018-04-30T00:38:35.253Z,2.33
2018-04-30T00:41:02.733Z,2.70
2018-04-30T00:43:30.211Z,2.30
2018-04-30T00:45:58.565Z,2.73
2018-04-30T00:48:26.074Z,2.47
2018-04-30T00:50:54.364Z,2.10
2018-04-30T00:53:21.897Z,2.57
2018-04-30T00:55:49.463Z,2.80
2018-04-30T00:58:17.014Z,3.93
2018-04-30T01:00:44.583Z,1.90
2018-04-30T01:03:12.151Z,4.00
2018-04-30T01:05:39.672Z,2.50
2018-04-30T01:08:07.153Z,2.27
2018-04-30T01:10:34.640Z,2.30
2018-04-30T01:13:02.217Z,2.50
2018-04-30T01:15:29.702Z,2.13
2018-04-30T01:17:58.073Z,2.27
2018-04-30T01:20:25.561Z,2.50
2018-04-30T01:22:53.908Z,2.40
2018-04-30T01:25:21.481Z,1.97
2018-04-30T01:27:49.045Z,2.53
2018-04-30T01:30:18.137Z,2.53
2018-04-30T01:32:45.627Z,2.40
2018-04-30T01:35:13.879Z,2.47
2018-04-30T01:37:41.456Z,2.23
2018-04-30T01:40:09.020Z,2.40
2018-04-30T01:42:36.533Z,2.07
2018-04-30T01:45:04.051Z,2.00
2018-04-30T01:47:31.545Z,2.03
2018-04-30T01:49:59.908Z,2.03
2018-04-30T01:52:27.404Z,2.00
2018-04-30T01:54:54.926Z,2.27
2018-04-30T01:57:22.399Z,1.90
2018-04-30T01:59:50.009Z,2.10
2018-04-30T02:02:17.618Z,2.00
2018-04-30T02:04:45.189Z,2.13
2018-04-30T02:07:12.675Z,2.03
2018-04-30T02:09:41.030Z,2.00
2018-04-30T02:12:08.526Z,2.00
2018-04-30T02:14:36.798Z,2.00
2018-04-30T02:17:05.072Z,1.83
2018-04-30T02:19:32.548Z,1.80
2018-04-30T02:22:00.815Z,1.73
2018-04-30T02:24:28.375Z,1.70
2018-04-30T02:26:55.900Z,1.80
2018-04-30T02:29:23.513Z,1.90
2018-04-30T02:31:50.999Z,1.90
2018-04-30T02:34:19.254Z,1.80
2018-04-30T02:36:46.810Z,2.20
2018-04-30T02:39:14.350Z,1.80
2018-04-30T02:41:41.852Z,2.07
2018-04-30T02:44:09.418Z,1.60
2018-04-30T02:46:36.964Z,1.80
2018-04-30T02:49:04.550Z,2.13
2018-04-30T02:51:32.803Z,1.90
2018-04-30T02:54:00.298Z,1.90
2018-04-30T02:56:27.794Z,1.83
2018-04-30T02:58:56.046Z,1.70
2018-04-30T03:01:23.565Z,1.70
2018-04-30T03:03:51.070Z,1.70
2018-04-30T03:06:18.585Z,1.70
2018-04-30T03:08:46.101Z,1.70
2018-04-30T03:11:13.631Z,1.70
2018-04-30T03:13:41.119Z,1.87
2018-04-30T03:16:08.605Z,1.70
2018-04-30T03:18:36.091Z,1.90
2018-04-30T03:21:04.444Z,1.50
2018-04-30T03:23:31.993Z,1.87
2018-04-30T03:25:59.573Z,1.70
2018-04-30T03:28:27.064Z,1.60
2018-04-30T03:30:55.425Z,1.63
2018-04-30T03:33:22.968Z,1.73
2018-04-30T03:35:50.453Z,1.73
2018-04-30T03:38:18.008Z,1.60
2018-04-30T03:40:45.508Z,1.53
2018-04-30T03:43:13.859Z,1.70
2018-04-30T03:45:41.345Z,1.73
2018-04-30T03:48:09.587Z,1.77
2018-04-30T03:50:37.165Z,1.83
2018-04-30T03:53:04.741Z,1.40
2018-04-30T03:55:33.109Z,1.57
2018-04-30T03:58:00.685Z,1.50
2018-04-30T04:00:40.171Z,1.50
2018-04-30T04:03:19.738Z,3.03
2018-04-30T04:05:59.101Z,1.67
2018-04-30T04:08:26.652Z,1.43
2018-04-30T04:10:54.226Z,151.60
2018-04-30T04:13:21.797Z,474.30
2018-04-30T04:15:49.353Z,393.27
2018-04-30T04:18:16.939Z,339.20
2018-04-30T04:20:44.476Z,303.67
2018-04-30T04:23:12.052Z,286.73
2018-04-30T04:25:39.628Z,266.90
2018-04-30T04:28:07.188Z,259.17
2018-04-30T04:30:36.294Z,250.53
2018-04-30T04:33:03.860Z,227.07
2018-04-30T04:35:31.370Z,237.10
2018-04-30T04:37:58.872Z,214.30
2018-04-30T04:40:26.454Z,222.20
2018-04-30T04:42:54.022Z,228.90
2018-04-30T04:45:21.580Z,224.97
2018-04-30T04:47:49.087Z,217.93
2018-04-30T04:50:16.615Z,195.17
2018-04-30T04:52:44.172Z,212.17
2018-04-30T04:55:11.742Z,173.20
2018-04-30T04:57:39.308Z,170.50
2018-04-30T05:00:06.803Z,168.30
2018-04-30T05:02:35.066Z,184.80
2018-04-30T05:05:02.572Z,187.13
2018-04-30T05:07:30.061Z,162.57
2018-04-30T05:09:57.586Z,161.43
2018-04-30T05:12:25.934Z,151.77
2018-04-30T05:14:53.516Z,145.93
2018-04-30T05:17:21.774Z,160.90
2018-04-30T05:19:49.300Z,154.10
2018-04-30T05:22:16.814Z,108.67
2018-04-30T05:24:44.310Z,83.70
2018-04-30T05:27:12.575Z,65.60
2018-04-30T05:29:40.067Z,129.80
2018-04-30T05:32:07.578Z,126.77
2018-04-30T05:34:36.706Z,112.10
2018-04-30T05:37:05.074Z,113.93
2018-04-30T05:39:32.604Z,113.43
2018-04-30T05:42:00.110Z,114.57
2018-04-30T05:44:27.602Z,97.43
2018-04-30T05:46:55.110Z,97.17
2018-04-30T05:49:22.691Z,99.97
2018-04-30T05:51:50.212Z,88.67
2018-04-30T05:54:17.716Z,88.57
2018-04-30T05:56:45.219Z,98.40
2018-04-30T05:59:13.487Z,83.57
2018-04-30T06:01:41.756Z,87.97
2018-04-30T06:04:09.268Z,89.50
2018-04-30T06:06:36.785Z,91.47
2018-04-30T06:09:04.299Z,80.13
2018-04-30T06:11:31.795Z,84.83
2018-04-30T06:13:59.378Z,83.83
2018-04-30T06:16:26.896Z,89.33
2018-04-30T06:18:54.523Z,74.37
2018-04-30T06:21:22.081Z,72.20
2018-04-30T06:23:49.646Z,69.30
2018-04-30T06:26:17.214Z,75.63
2018-04-30T06:28:44.724Z,67.30
2018-04-30T06:31:12.220Z,64.60
2018-04-30T06:33:39.816Z,69.13
2018-04-30T06:36:07.377Z,58.33
2018-04-30T06:38:34.927Z,62.20
2018-04-30T06:41:02.506Z,67.97
2018-04-30T06:43:30.000Z,68.70
2018-04-30T06:45:57.502Z,62.37
2018-04-30T06:48:25.039Z,63.63
2018-04-30T06:50:52.528Z,58.10
2018-04-30T06:53:20.063Z,60.17
2018-04-30T06:55:47.566Z,58.60
2018-04-30T06:58:15.063Z,53.27
2018-04-30T07:00:42.569Z,55.40
2018-04-30T07:03:10.074Z,47.07
2018-04-30T07:05:39.180Z,53.03
2018-04-30T07:08:06.681Z,52.30
2018-04-30T07:10:34.184Z,56.50
2018-04-30T07:13:01.763Z,54.83
2018-04-30T07:15:29.339Z,48.57
2018-04-30T07:17:56.905Z,48.27
2018-04-30T07:20:24.477Z,50.93
2018-04-30T07:22:52.741Z,48.53
2018-04-30T07:25:20.267Z,55.70
2018-04-30T07:27:47.793Z,50.47
2018-04-30T07:30:15.355Z,48.80
2018-04-30T07:32:42.881Z,46.27
2018-04-30T07:35:10.380Z,39.80
2018-04-30T07:37:37.887Z,48.83
2018-04-30T07:40:05.384Z,39.00
2018-04-30T07:42:32.954Z,43.00
2018-04-30T07:45:00.448Z,48.67
2018-04-30T07:47:28.720Z,45.73
2018-04-30T07:49:56.215Z,39.93
2018-04-30T07:52:24.563Z,45.70
2018-04-30T07:54:52.128Z,41.67
2018-04-30T07:57:19.700Z,45.83
2018-04-30T07:59:47.136Z,37.80
2018-04-30T08:02:14.723Z,38.50
2018-04-30T08:04:42.217Z,40.87
2018-04-30T08:07:10.521Z,36.10
2018-04-30T08:09:38.043Z,34.87
2018-04-30T08:12:05.607Z,35.60
2018-04-30T08:14:33.174Z,37.93
2018-04-30T08:17:01.456Z,40.97
2018-04-30T08:19:29.024Z,33.30
2018-04-30T08:21:56.541Z,34.70
2018-04-30T08:24:24.125Z,30.50
2018-04-30T08:26:51.738Z,32.17
2018-04-30T08:29:19.275Z,30.60
2018-04-30T08:31:46.865Z,35.10
2018-04-30T08:34:14.429Z,29.97
2018-04-30T08:36:42.080Z,28.30
2018-04-30T08:39:09.491Z,30.73
2018-04-30T08:41:37.007Z,28.63
2018-04-30T08:44:04.525Z,31.37
2018-04-30T08:46:32.036Z,25.43
2018-04-30T08:48:59.592Z,23.97
2018-04-30T08:51:27.172Z,27.97
2018-04-30T08:53:54.733Z,26.93
2018-04-30T08:56:22.261Z,29.07
2018-04-30T08:58:49.769Z,25.97
2018-04-30T09:01:17.267Z,22.50
2018-04-30T09:03:45.614Z,20.67
2018-04-30T09:06:13.901Z,24.80
2018-04-30T09:08:41.457Z,22.57
2018-04-30T09:11:08.953Z,21.40
2018-04-30T09:13:37.210Z,20.20
2018-04-30T09:16:04.766Z,24.30
2018-04-30T09:18:32.287Z,25.53
2018-04-30T09:20:59.814Z,20.47
2018-04-30T09:23:27.355Z,20.23
2018-04-30T09:25:54.932Z,19.27
2018-04-30T09:28:22.507Z,21.57
2018-04-30T09:30:50.001Z,24.87
2018-04-30T09:33:17.510Z,23.70
2018-04-30T09:35:44.993Z,19.93
2018-04-30T09:38:13.243Z,21.93
2018-04-30T09:40:40.843Z,18.77
2018-04-30T09:43:08.341Z,19.03
2018-04-30T09:45:35.867Z,21.60
2018-04-30T09:48:03.434Z,15.77
2018-04-30T09:50:31.004Z,26.03
2018-04-30T09:52:58.512Z,17.57
2018-04-30T09:55:26.001Z,16.27
2018-04-30T09:57:53.636Z,16.90
2018-04-30T10:00:23.765Z,19.27
2018-04-30T10:02:51.261Z,14.33
2018-04-30T10:05:18.771Z,16.33
2018-04-30T10:07:47.131Z,19.67
2018-04-30T10:10:14.645Z,15.50
2018-04-30T10:12:42.131Z,16.10
2018-04-30T10:15:09.628Z,14.63
2018-04-30T10:17:37.114Z,19.47
2018-04-30T10:20:05.477Z,14.97
2018-04-30T10:22:33.833Z,14.77
2018-04-30T10:25:01.334Z,16.40
2018-04-30T10:27:28.838Z,13.43
2018-04-30T10:29:56.346Z,15.73
2018-04-30T10:32:23.839Z,16.13
2018-04-30T10:34:52.194Z,19.67
2018-04-30T10:37:19.703Z,18.63
2018-04-30T10:39:47.197Z,15.40
2018-04-30T10:42:14.701Z,17.33
2018-04-30T10:44:42.195Z,14.53
2018-04-30T10:47:09.727Z,13.87
2018-04-30T10:49:37.206Z,11.87
2018-04-30T10:52:05.454Z,13.30
2018-04-30T10:54:32.966Z,14.00
2018-04-30T10:57:01.212Z,15.10
2018-04-30T10:59:28.778Z,17.97
2018-04-30T11:01:56.268Z,16.87
2018-04-30T11:04:24.618Z,10.33
2018-04-30T11:06:52.189Z,8.83
2018-04-30T11:09:19.760Z,13.70
2018-04-30T11:11:47.326Z,16.13
2018-04-30T11:14:14.826Z,14.37
2018-04-30T11:16:42.310Z,12.93
2018-04-30T11:19:09.796Z,12.83
2018-04-30T11:21:37.370Z,13.33
2018-04-30T11:24:04.878Z,11.73
2018-04-30T11:26:33.232Z,9.40
2018-04-30T11:29:00.742Z,13.20
2018-04-30T11:31:28.236Z,15.13
2018-04-30T11:33:55.816Z,10.90
2018-04-30T11:36:23.390Z,9.97
2018-04-30T11:38:50.900Z,10.27
2018-04-30T11:41:18.414Z,12.97
2018-04-30T11:43:45.934Z,12.77
2018-04-30T11:46:13.425Z,11.73
2018-04-30T11:48:40.927Z,15.63
2018-04-30T11:51:09.188Z,10.37
2018-04-30T11:53:36.703Z,18.57
2018-04-30T11:56:04.200Z,9.27
2018-04-30T11:58:31.785Z,11.17
2018-04-30T12:00:59.289Z,13.90
2018-04-30T12:03:26.799Z,7.73
2018-04-30T12:05:54.295Z,11.17
2018-04-30T12:08:21.780Z,13.33
2018-04-30T12:10:49.278Z,8.40
2018-04-30T12:13:16.881Z,11.70
2018-04-30T12:15:44.372Z,8.83
2018-04-30T12:18:11.878Z,14.10
2018-04-30T12:20:39.476Z,18.57
2018-04-30T12:23:07.855Z,12.40
2018-04-30T12:25:36.225Z,8.33
2018-04-30T12:28:04.521Z,13.33
2018-04-30T12:30:32.799Z,7.30
2018-04-30T12:33:00.302Z,7.47
2018-04-30T12:35:27.856Z,12.57
2018-04-30T12:37:56.206Z,10.57
2018-04-30T12:40:23.798Z,8.03
2018-04-30T12:42:52.150Z,12.47
2018-04-30T12:45:19.673Z,10.67
2018-04-30T12:47:47.169Z,11.33
2018-04-30T12:50:14.760Z,6.80
2018-04-30T12:52:42.328Z,6.07
2018-04-30T12:55:09.828Z,7.17
2018-04-30T12:57:37.412Z,9.63
2018-04-30T13:00:04.925Z,5.93
2018-04-30T13:02:32.501Z,7.77
2018-04-30T13:05:01.593Z,10.97
2018-04-30T13:07:29.154Z,4.77
2018-04-30T13:09:56.637Z,6.47
2018-04-30T13:12:24.992Z,12.47
2018-04-30T13:14:52.485Z,8.03
2018-04-30T13:17:20.858Z,16.83
2018-04-30T13:19:48.422Z,8.00
2018-04-30T13:22:15.976Z,9.43
2018-04-30T13:24:43.466Z,7.23
2018-04-30T13:27:11.819Z,11.33
2018-04-30T13:29:39.390Z,7.03
2018-04-30T13:32:07.656Z,16.03
2018-04-30T13:34:35.158Z,7.63
2018-04-30T13:37:03.513Z,9.00
2018-04-30T13:39:31.018Z,8.83
2018-04-30T13:41:59.274Z,7.87
2018-04-30T13:44:26.763Z,9.40
2018-04-30T13:46:55.122Z,7.53
2018-04-30T13:49:22.676Z,9.83
2018-04-30T13:51:50.256Z,9.57
2018-04-30T13:54:17.757Z,13.20
2018-04-30T13:56:45.253Z,8.40
2018-04-30T13:59:12.746Z,7.47
2018-04-30T14:01:40.307Z,11.17
2018-04-30T14:04:07.872Z,6.40
2018-04-30T14:06:35.440Z,9.87
2018-04-30T14:09:02.980Z,7.53
2018-04-30T14:11:30.458Z,4.80
2018-04-30T14:13:57.970Z,6.80
2018-04-30T14:16:26.074Z,6.23
2018-04-30T14:18:53.557Z,7.20
2018-04-30T14:21:21.145Z,5.10
2018-04-30T14:23:49.322Z,10.00
2018-04-30T14:26:16.844Z,5.33
2018-04-30T14:28:44.461Z,4.17
2018-04-30T14:31:12.737Z,4.40
2018-04-30T14:33:40.216Z,6.57
2018-04-30T14:36:08.467Z,6.23
2018-04-30T14:38:36.013Z,5.53
2018-04-30T14:41:03.600Z,6.73
2018-04-30T14:43:31.176Z,4.17
2018-04-30T14:45:58.670Z,3.97
2018-04-30T14:48:27.026Z,8.73
2018-04-30T14:50:54.522Z,5.83
2018-04-30T14:53:22.873Z,4.80
2018-04-30T14:55:50.436Z,3.80
2018-04-30T14:58:17.929Z,5.57
2018-04-30T15:00:46.190Z,4.27
2018-04-30T15:03:13.743Z,6.67
2018-04-30T15:05:41.254Z,7.13
2018-04-30T15:08:08.739Z,7.40
2018-04-30T15:10:36.226Z,6.53
2018-04-30T15:13:03.810Z,5.77
2018-04-30T15:15:31.384Z,3.43
2018-04-30T15:17:58.947Z,4.47
2018-04-30T15:20:26.437Z,7.00
2018-04-30T15:22:54.803Z,5.57
2018-04-30T15:25:22.298Z,5.10
2018-04-30T15:27:49.794Z,7.13
2018-04-30T15:30:17.434Z,5.40
2018-04-30T15:32:44.950Z,6.17
2018-04-30T15:35:12.432Z,6.93
2018-04-30T15:37:40.699Z,4.07
2018-04-30T15:40:08.199Z,3.67
2018-04-30T15:42:35.788Z,3.50
2018-04-30T15:45:03.280Z,3.10
2018-04-30T15:47:30.844Z,3.43
2018-04-30T15:49:58.432Z,3.73
2018-04-30T15:52:25.988Z,4.40
2018-04-30T15:54:53.551Z,4.47
2018-04-30T15:57:21.113Z,4.73
2018-04-30T15:59:48.701Z,3.90
2018-04-30T16:02:16.180Z,4.53
2018-04-30T16:04:44.434Z,3.43
2018-04-30T16:07:12.005Z,2.83
2018-04-30T16:09:39.492Z,3.43
2018-04-30T16:12:07.758Z,5.60
2018-04-30T16:14:35.242Z,6.97
2018-04-30T16:17:02.750Z,4.63
2018-04-30T16:19:30.274Z,4.70
2018-04-30T16:21:58.523Z,9.50
2018-04-30T16:24:26.080Z,6.53
2018-04-30T16:26:53.608Z,5.50
2018-04-30T16:29:21.114Z,7.73
2018-04-30T16:31:48.631Z,7.37
2018-04-30T16:34:16.122Z,6.97
2018-04-30T16:36:43.619Z,16.33
2018-04-30T16:39:11.882Z,11.07
2018-04-30T16:41:39.441Z,9.13
2018-04-30T16:44:06.954Z,6.83
2018-04-30T16:46:34.441Z,10.33
2018-04-30T16:49:01.939Z,7.80
2018-04-30T16:51:29.528Z,24.10
2018-04-30T16:53:57.083Z,21.70
2018-04-30T16:56:24.634Z,9.87
2018-04-30T16:58:52.147Z,22.73
2018-04-30T17:01:19.641Z,23.37
2018-04-30T17:03:47.162Z,30.70
2018-04-30T17:06:14.649Z,29.50
2018-04-30T17:08:42.264Z,39.93
2018-04-30T17:11:09.766Z,45.00
2018-04-30T17:13:38.121Z,73.57
2018-04-30T17:16:06.387Z,121.87
2018-04-30T17:18:33.968Z,187.03
2018-04-30T17:21:02.996Z,174.57
2018-04-30T17:23:31.264Z,169.27
2018-04-30T17:25:59.646Z,163.93
2018-04-30T17:28:27.199Z,195.43
2018-04-30T17:30:54.703Z,177.93
2018-04-30T17:33:22.228Z,175.57
2018-04-30T17:35:49.739Z,162.37
2018-04-30T17:38:17.251Z,155.33
2018-04-30T17:40:44.765Z,124.07
2018-04-30T17:43:12.285Z,123.70
2018-04-30T17:45:39.784Z,128.07
2018-04-30T17:48:07.421Z,124.87
2018-04-30T17:50:34.930Z,119.60
2018-04-30T17:53:02.441Z,120.77
2018-04-30T17:55:29.961Z,125.20
2018-04-30T17:57:57.463Z,122.03
2018-04-30T18:00:25.041Z,117.87
2018-04-30T18:02:53.333Z,109.30
2018-04-30T18:05:20.855Z,114.00
2018-04-30T18:07:48.365Z,107.30
2018-04-30T18:10:16.744Z,104.60
2018-04-30T18:12:44.307Z,89.03
2018-04-30T18:15:12.604Z,276.70
2018-04-30T18:17:40.854Z,105.53
2018-04-30T18:20:08.476Z,101.20
2018-04-30T18:22:36.095Z,105.07
2018-04-30T18:25:03.615Z,102.67
2018-04-30T18:27:31.112Z,93.33
2018-04-30T18:29:58.687Z,91.23
2018-04-30T18:32:26.942Z,97.13
2018-04-30T18:34:54.461Z,98.37
2018-04-30T18:37:22.866Z,91.93
2018-04-30T18:39:50.367Z,92.73
2018-04-30T18:42:17.969Z,82.20
2018-04-30T18:44:45.503Z,82.10
2018-04-30T18:47:13.007Z,78.67
2018-04-30T18:49:41.372Z,78.37
2018-04-30T18:52:08.953Z,85.10
2018-04-30T18:54:36.451Z,82.80
2018-04-30T18:57:03.957Z,72.20
2018-04-30T18:59:31.469Z,71.17
2018-04-30T19:01:58.983Z,70.07
2018-04-30T19:04:26.489Z,72.13
2018-04-30T19:06:54.003Z,76.00
2018-04-30T19:09:21.501Z,67.30
2018-04-30T19:11:48.992Z,72.77
2018-04-30T19:14:16.613Z,67.40
2018-04-30T19:16:44.186Z,66.40
2018-04-30T19:19:11.699Z,65.27
2018-04-30T19:21:39.296Z,51.37
2018-04-30T19:24:06.794Z,47.67
2018-04-30T19:26:35.068Z,45.67
2018-04-30T19:29:02.614Z,59.17
2018-04-30T19:31:30.128Z,47.30
2018-04-30T19:33:58.390Z,51.73
2018-04-30T19:36:26.676Z,50.70
2018-04-30T19:38:54.954Z,46.63
2018-04-30T19:41:23.232Z,49.13
2018-04-30T19:43:50.808Z,53.53
2018-04-30T19:46:19.074Z,43.77
2018-04-30T19:48:46.581Z,49.20
2018-04-30T19:51:14.113Z,46.93
2018-04-30T19:53:42.379Z,44.53
2018-04-30T19:56:09.950Z,43.30
2018-04-30T19:58:37.451Z,45.47
2018-04-30T20:01:04.986Z,40.60
2018-04-30T20:03:32.561Z,42.63
2018-04-30T20:06:00.929Z,42.33
2018-04-30T20:08:28.492Z,39.87
2018-04-30T20:10:56.020Z,35.17
2018-04-30T20:13:23.535Z,38.60
2018-04-30T20:15:51.842Z,35.73
2018-04-30T20:18:19.377Z,33.20
2018-04-30T20:20:46.921Z,36.10
2018-04-30T20:23:14.464Z,33.10
2018-04-30T20:25:41.972Z,31.43
2018-04-30T20:28:09.498Z,30.57
2018-04-30T20:30:37.089Z,35.00
2018-04-30T20:33:04.607Z,32.47
2018-04-30T20:35:32.118Z,32.60
2018-04-30T20:37:59.733Z,33.63
2018-04-30T20:40:27.196Z,30.57
2018-04-30T20:42:54.842Z,28.60
2018-04-30T20:45:23.118Z,31.47
2018-04-30T20:47:50.666Z,28.53
2018-04-30T20:50:19.791Z,29.00
2018-04-30T20:52:47.334Z,27.47
2018-04-30T20:55:14.842Z,28.37
2018-04-30T20:57:42.362Z,31.77
2018-04-30T21:00:10.764Z,29.10
2018-04-30T21:02:38.242Z,23.67
2018-04-30T21:05:06.603Z,25.87
2018-04-30T21:07:34.104Z,27.27
2018-04-30T21:10:01.628Z,24.97
2018-04-30T21:12:29.197Z,27.87
2018-04-30T21:14:56.762Z,24.53
2018-04-30T21:17:24.315Z,26.00
2018-04-30T21:19:51.791Z,25.67
2018-04-30T21:22:19.277Z,22.10
2018-04-30T21:24:47.596Z,29.13
2018-04-30T21:27:15.906Z,24.10
2018-04-30T21:29:43.480Z,21.67
2018-04-30T21:32:10.972Z,24.27
2018-04-30T21:34:39.254Z,19.27
2018-04-30T21:37:07.596Z,22.43
2018-04-30T21:39:35.105Z,18.87
2018-04-30T21:42:03.364Z,20.17
2018-04-30T21:44:30.866Z,23.27
2018-04-30T21:46:58.400Z,19.30
2018-04-30T21:49:26.790Z,24.10
2018-04-30T21:51:55.101Z,19.60
2018-04-30T21:54:22.636Z,20.20
2018-04-30T21:56:50.900Z,16.70
2018-04-30T21:59:18.465Z,18.67
2018-04-30T22:01:46.045Z,18.90
2018-04-30T22:04:13.546Z,16.77
2018-04-30T22:06:41.054Z,20.77
2018-04-30T22:09:08.588Z,18.60
2018-04-30T22:11:36.193Z,21.33
2018-04-30T22:14:04.474Z,13.77
2018-04-30T22:16:32.048Z,17.27
2018-04-30T22:18:59.604Z,11.47
2018-04-30T22:21:27.094Z,15.50
2018-04-30T22:23:55.440Z,13.90
2018-04-30T22:26:23.031Z,14.57
2018-04-30T22:28:50.514Z,14.80
2018-04-30T22:31:18.784Z,21.73
2018-04-30T22:33:47.144Z,14.90
2018-04-30T22:36:14.638Z,14.97
2018-04-30T22:38:43.001Z,13.93
2018-04-30T22:41:10.572Z,13.30
2018-04-30T22:43:38.078Z,15.50
2018-04-30T22:46:05.574Z,14.03
2018-04-30T22:48:33.071Z,12.00
2018-04-30T22:51:00.622Z,11.67
2018-04-30T22:53:28.124Z,14.47
2018-04-30T22:55:55.626Z,15.67
2018-04-30T22:58:23.229Z,11.30
2018-04-30T23:00:50.743Z,16.63
2018-04-30T23:03:18.238Z,10.33
2018-04-30T23:05:45.807Z,12.93
2018-04-30T23:08:13.307Z,10.33
2018-04-30T23:10:41.656Z,8.83
2018-04-30T23:13:09.228Z,9.60
2018-04-30T23:15:36.851Z,11.77
2018-04-30T23:18:04.341Z,9.97
2018-04-30T23:20:31.884Z,9.63
2018-04-30T23:22:59.434Z,9.80
2018-04-30T23:25:26.948Z,9.33
2018-04-30T23:27:55.331Z,10.93
2018-04-30T23:30:22.892Z,9.53
2018-04-30T23:32:50.511Z,9.43
2018-04-30T23:35:18.012Z,10.87
2018-04-30T23:37:45.601Z,10.97
2018-04-30T23:40:13.172Z,10.00
2018-04-30T23:42:40.680Z,10.83
2018-04-30T23:45:08.173Z,8.77
2018-04-30T23:47:35.759Z,7.03
2018-04-30T23:50:03.370Z,7.97
2018-04-30T23:52:30.907Z,9.37
2018-04-30T23:54:58.401Z,10.83
2018-04-30T23:57:25.912Z,8.30
2018-04-30T23:59:53.442Z,6.97
